createdAt,value
2019-02-12T00:01:12.131Z,3.60
2019-02-12T00:03:39.920Z,3.60
2019-02-12T00:06:07.707Z,3.60
2019-02-12T00:08:35.532Z,3.70
2019-02-12T00:11:03.578Z,3.70
2019-02-12T00:13:31.345Z,3.70
2019-02-12T00:15:59.298Z,3.80
2019-02-12T00:18:27.062Z,3.80
2019-02-12T00:20:54.982Z,3.70
2019-02-12T00:23:22.752Z,3.70
2019-02-12T00:25:50.705Z,3.70
2019-02-12T00:28:18.541Z,3.70
2019-02-12T00:30:46.304Z,3.80
2019-02-12T00:33:14.082Z,3.80
2019-02-12T00:35:41.792Z,3.90
2019-02-12T00:38:09.590Z,3.80
2019-02-12T00:40:37.356Z,3.80
2019-02-12T00:43:05.196Z,3.80
2019-02-12T00:45:33.135Z,3.90
2019-02-12T00:48:00.882Z,3.90
2019-02-12T00:50:28.722Z,3.90
2019-02-12T00:52:56.505Z,3.80
2019-02-12T00:55:24.449Z,3.90
2019-02-12T00:57:52.191Z,3.90
2019-02-12T01:00:20.131Z,3.90
2019-02-12T01:02:47.892Z,3.90
2019-02-12T01:05:15.793Z,3.90
2019-02-12T01:07:43.537Z,3.90
2019-02-12T01:10:11.645Z,3.90
2019-02-12T01:12:39.397Z,3.90
2019-02-12T01:15:09.977Z,3.90
2019-02-12T01:17:37.868Z,3.90
2019-02-12T01:20:08.303Z,3.90
2019-02-12T01:22:36.231Z,3.90
2019-02-12T01:25:04.720Z,3.90
2019-02-12T01:27:32.474Z,4.00
2019-02-12T01:30:00.285Z,3.90
2019-02-12T01:32:28.183Z,3.80
2019-02-12T01:34:56.079Z,3.80
2019-02-12T01:37:23.991Z,3.80
2019-02-12T01:39:51.818Z,3.70
2019-02-12T01:42:19.561Z,3.70
2019-02-12T01:44:47.349Z,3.60
2019-02-12T01:47:15.295Z,3.60
2019-02-12T01:49:43.060Z,3.60
2019-02-12T01:52:10.824Z,3.60
2019-02-12T01:54:38.593Z,3.60
2019-02-12T01:57:06.358Z,3.60
2019-02-12T01:59:34.139Z,3.50
2019-02-12T02:02:02.053Z,3.50
2019-02-12T02:04:29.788Z,3.40
2019-02-12T02:06:57.564Z,3.40
2019-02-12T02:09:25.326Z,3.50
2019-02-12T02:11:53.088Z,3.50
2019-02-12T02:14:20.890Z,3.50
2019-02-12T02:16:48.810Z,3.50
2019-02-12T02:19:16.586Z,3.50
2019-02-12T02:21:44.426Z,3.40
2019-02-12T02:24:12.236Z,3.50
2019-02-12T02:26:39.950Z,3.50
2019-02-12T02:29:07.681Z,3.50
2019-02-12T02:31:35.431Z,3.50
2019-02-12T02:34:03.240Z,3.50
2019-02-12T02:36:31.167Z,3.60
2019-02-12T02:38:59.073Z,3.60
2019-02-12T02:41:26.860Z,3.60
2019-02-12T02:43:54.579Z,3.60
2019-02-12T02:46:22.544Z,3.70
2019-02-12T02:48:50.319Z,3.70
2019-02-12T02:51:18.106Z,3.70
2019-02-12T02:53:46.090Z,3.70
2019-02-12T02:56:13.860Z,3.70
2019-02-12T02:58:41.615Z,3.80
2019-02-12T03:01:09.502Z,3.80
2019-02-12T03:03:37.435Z,3.80
2019-02-12T03:06:05.336Z,3.80
2019-02-12T03:08:33.082Z,3.80
2019-02-12T03:11:00.885Z,3.80
2019-02-12T03:13:28.834Z,3.80
2019-02-12T03:15:56.605Z,3.80
2019-02-12T03:18:24.349Z,3.90
2019-02-12T03:20:52.149Z,3.90
2019-02-12T03:23:20.047Z,3.90
2019-02-12T03:25:47.867Z,3.80
2019-02-12T03:28:15.797Z,3.90
2019-02-12T03:30:43.584Z,3.80
2019-02-12T03:33:11.479Z,3.80
2019-02-12T03:35:39.236Z,3.80
2019-02-12T03:38:07.141Z,3.80
2019-02-12T03:40:34.919Z,3.80
2019-02-12T03:43:02.730Z,3.80
2019-02-12T03:45:30.523Z,3.80
2019-02-12T03:47:58.467Z,3.80
2019-02-12T03:50:26.219Z,3.80
2019-02-12T03:52:54.174Z,3.80
2019-02-12T03:55:21.962Z,3.70
2019-02-12T03:57:50.512Z,3.60
2019-02-12T04:00:18.402Z,3.60
2019-02-12T04:03:01.064Z,3.50
2019-02-12T04:05:28.891Z,3.30
2019-02-12T04:07:56.640Z,3.20
2019-02-12T04:10:24.452Z,3.20
2019-02-12T04:12:52.276Z,3.10
2019-02-12T04:15:20.312Z,3.00
2019-02-12T04:17:48.058Z,3.00
2019-02-12T04:20:15.840Z,3.10
2019-02-12T04:22:43.776Z,3.10
2019-02-12T04:25:11.530Z,3.20
2019-02-12T04:27:39.304Z,3.20
2019-02-12T04:30:07.344Z,3.20
2019-02-12T04:32:35.086Z,3.20
2019-02-12T04:35:03.104Z,3.30
2019-02-12T04:37:31.032Z,3.40
2019-02-12T04:39:58.801Z,3.40
2019-02-12T04:42:26.574Z,3.40
2019-02-12T04:44:54.379Z,3.40
2019-02-12T04:47:22.125Z,3.50
2019-02-12T04:49:50.069Z,3.50
2019-02-12T04:52:17.836Z,3.50
2019-02-12T04:54:45.823Z,3.60
2019-02-12T04:57:13.581Z,3.60
2019-02-12T04:59:41.551Z,3.70
2019-02-12T05:02:09.438Z,3.70
2019-02-12T05:04:37.173Z,3.80
2019-02-12T05:07:04.956Z,3.80
2019-02-12T05:09:34.146Z,3.90
2019-02-12T05:12:04.644Z,3.90
2019-02-12T05:14:32.622Z,3.90
2019-02-12T05:17:00.403Z,3.90
2019-02-12T05:19:28.299Z,3.90
2019-02-12T05:21:56.145Z,3.90
2019-02-12T05:24:24.126Z,3.90
2019-02-12T05:26:51.873Z,3.90
2019-02-12T05:29:19.793Z,3.90
2019-02-12T05:31:47.606Z,3.90
2019-02-12T05:34:15.646Z,3.90
2019-02-12T05:36:43.463Z,3.90
2019-02-12T05:39:11.385Z,3.90
2019-02-12T05:41:39.169Z,3.90
2019-02-12T05:44:06.919Z,3.90
2019-02-12T05:46:34.727Z,3.90
2019-02-12T05:49:02.634Z,3.90
2019-02-12T05:51:30.531Z,3.90
2019-02-12T05:53:58.327Z,3.80
2019-02-12T05:56:26.107Z,3.80
2019-02-12T05:58:53.928Z,3.80
2019-02-12T06:01:21.903Z,3.80
2019-02-12T06:03:49.839Z,3.80
2019-02-12T06:06:17.771Z,3.80
2019-02-12T06:08:45.551Z,3.80
2019-02-12T06:11:13.362Z,3.80
2019-02-12T06:13:41.140Z,3.80
2019-02-12T06:16:08.954Z,3.80
2019-02-12T06:18:36.725Z,3.80
2019-02-12T06:21:04.520Z,3.80
2019-02-12T06:23:32.365Z,3.80
2019-02-12T06:26:00.155Z,3.70
2019-02-12T06:28:27.962Z,3.60
2019-02-12T06:30:55.730Z,3.50
2019-02-12T06:33:23.625Z,3.40
2019-02-12T06:35:51.423Z,3.30
2019-02-12T06:38:19.176Z,3.20
2019-02-12T06:40:47.144Z,3.20
2019-02-12T06:43:14.938Z,3.20
2019-02-12T06:45:42.715Z,3.10
2019-02-12T06:48:10.484Z,3.00
2019-02-12T06:50:38.287Z,3.10
2019-02-12T06:53:12.342Z,3.10
2019-02-12T06:55:35.855Z,3.10
2019-02-12T06:58:03.700Z,3.10
2019-02-12T07:00:31.568Z,3.10
2019-02-12T07:03:16.650Z,3.10
2019-02-12T07:06:27.722Z,3.00
2019-02-12T07:09:24.028Z,2.90
2019-02-12T07:13:00.015Z,3.10
2019-02-12T07:15:42.779Z,3.00
2019-02-12T07:19:01.265Z,3.10
2019-02-12T07:22:19.517Z,3.10
2019-02-12T07:25:44.755Z,3.20
2019-02-12T07:29:09.888Z,3.20
2019-02-12T07:32:21.341Z,3.20
2019-02-12T07:35:35.949Z,3.30
2019-02-12T07:38:50.999Z,3.40
2019-02-12T07:42:33.597Z,3.40
2019-02-12T07:45:47.165Z,3.50
2019-02-12T07:49:20.578Z,3.60
2019-02-12T07:52:19.351Z,3.70
2019-02-12T07:55:54.267Z,3.80
2019-02-12T07:58:46.966Z,3.80
2019-02-12T08:02:36.910Z,3.90
2019-02-12T08:05:48.618Z,3.90
2019-02-12T08:09:13.393Z,4.00
2019-02-12T08:12:03.529Z,4.10
2019-02-12T08:15:44.466Z,4.20
2019-02-12T08:19:08.008Z,4.40
2019-02-12T08:22:45.745Z,4.50
2019-02-12T08:26:16.408Z,4.60
2019-02-12T08:29:26.584Z,4.70
2019-02-12T08:33:01.402Z,4.70
2019-02-12T08:36:17.490Z,4.80
2019-02-12T08:39:06.380Z,4.70
2019-02-12T08:42:41.328Z,4.80
2019-02-12T08:46:18.249Z,4.80
2019-02-12T08:49:17.914Z,4.90
2019-02-12T08:53:05.078Z,4.90
2019-02-12T08:56:34.338Z,4.90
2019-02-12T08:59:58.546Z,4.90
2019-02-12T09:03:25.940Z,5.10
2019-02-12T09:06:21.832Z,5.10
2019-02-12T09:09:34.962Z,5.20
2019-02-12T09:12:49.804Z,5.20
2019-02-12T09:16:23.324Z,5.40
2019-02-12T09:19:36.868Z,5.50
2019-02-12T09:23:01.185Z,5.50
2019-02-12T09:26:08.859Z,5.40
2019-02-12T09:29:24.623Z,5.30
2019-02-12T09:32:49.911Z,5.20
2019-02-12T09:36:19.196Z,5.20
2019-02-12T09:39:31.099Z,5.30
2019-02-12T09:43:11.707Z,5.40
2019-02-12T09:46:08.821Z,5.30
2019-02-12T09:48:50.529Z,5.40
2019-02-12T09:51:36.610Z,5.50
2019-02-12T09:54:40.139Z,5.60
2019-02-12T09:57:57.169Z,5.70
2019-02-12T10:00:46.567Z,5.70
2019-02-12T10:04:26.117Z,5.80
2019-02-12T10:07:21.696Z,5.80
2019-02-12T10:11:01.199Z,5.90
2019-02-12T10:14:15.531Z,6.00
2019-02-12T10:17:19.673Z,6.00
2019-02-12T10:20:07.563Z,6.20
2019-02-12T10:23:19.718Z,6.30
2019-02-12T10:26:01.317Z,6.50
2019-02-12T10:29:17.107Z,6.70
2019-02-12T10:31:44.023Z,6.60
2019-02-12T10:34:11.884Z,6.60
2019-02-12T10:36:39.812Z,6.50
2019-02-12T10:39:14.480Z,6.40
2019-02-12T10:41:42.256Z,6.40
2019-02-12T10:44:10.167Z,6.30
2019-02-12T10:46:37.965Z,6.30
2019-02-12T10:49:05.800Z,6.30
2019-02-12T10:51:33.592Z,6.40
2019-02-12T10:54:01.404Z,6.60
2019-02-12T10:56:29.322Z,6.60
2019-02-12T10:58:57.072Z,6.50
2019-02-12T11:01:24.901Z,6.60
2019-02-12T11:03:52.716Z,6.70
2019-02-12T11:06:20.591Z,6.70
2019-02-12T11:08:48.371Z,6.70
2019-02-12T11:11:16.145Z,6.80
2019-02-12T11:13:43.932Z,7.00
2019-02-12T11:16:13.098Z,7.00
2019-02-12T11:18:40.874Z,7.00
2019-02-12T11:21:11.958Z,6.90
2019-02-12T11:23:38.347Z,6.80
2019-02-12T11:26:06.170Z,6.70
2019-02-12T11:28:33.903Z,6.60
2019-02-12T11:31:01.857Z,6.60
2019-02-12T11:33:29.686Z,6.50
2019-02-12T11:35:57.479Z,6.30
2019-02-12T11:38:25.269Z,6.00
2019-02-12T11:40:53.090Z,5.70
2019-02-12T11:43:20.952Z,5.60
2019-02-12T11:45:48.901Z,5.40
2019-02-12T11:48:17.907Z,5.10
2019-02-12T11:50:45.841Z,5.10
2019-02-12T11:53:13.647Z,5.20
2019-02-12T11:55:41.453Z,5.40
2019-02-12T11:58:09.217Z,5.40
2019-02-12T12:00:43.047Z,5.50
2019-02-12T12:03:10.843Z,5.60
2019-02-12T12:05:38.703Z,5.70
2019-02-12T12:08:06.493Z,5.60
2019-02-12T12:10:34.325Z,5.60
2019-02-12T12:13:02.167Z,5.50
2019-02-12T12:15:29.999Z,5.50
2019-02-12T12:17:57.807Z,5.60
2019-02-12T12:20:25.626Z,5.70
2019-02-12T12:22:53.429Z,5.90
2019-02-12T12:25:21.545Z,6.10
2019-02-12T12:27:49.347Z,6.50
2019-02-12T12:30:18.956Z,6.90
2019-02-12T12:32:46.850Z,7.20
2019-02-12T12:35:14.753Z,7.50
2019-02-12T12:37:42.529Z,7.50
2019-02-12T12:40:10.658Z,7.30
2019-02-12T12:42:38.444Z,7.00
2019-02-12T12:45:07.662Z,6.70
2019-02-12T12:47:35.505Z,6.70
2019-02-12T12:50:03.998Z,6.50
2019-02-12T12:52:31.818Z,6.60
2019-02-12T12:55:00.220Z,6.70
2019-02-12T12:57:28.141Z,6.70
2019-02-12T12:59:55.892Z,6.80
2019-02-12T13:02:23.752Z,6.80
2019-02-12T13:04:51.590Z,6.90
2019-02-12T13:07:19.403Z,7.00
2019-02-12T13:09:47.269Z,6.90
2019-02-12T13:12:15.134Z,6.70
2019-02-12T13:14:42.983Z,6.60
2019-02-12T13:17:11.578Z,6.50
2019-02-12T13:19:39.378Z,6.60
2019-02-12T13:22:07.267Z,6.50
2019-02-12T13:24:35.067Z,6.40
2019-02-12T13:27:02.902Z,6.20
2019-02-12T13:29:30.662Z,5.80
2019-02-12T13:31:58.450Z,5.50
2019-02-12T13:34:26.287Z,5.40
2019-02-12T13:36:54.126Z,5.30
2019-02-12T13:39:24.189Z,5.40
2019-02-12T13:41:52.098Z,5.50
2019-02-12T13:44:20.031Z,5.70
2019-02-12T13:46:47.995Z,5.90
2019-02-12T13:49:17.929Z,5.90
2019-02-12T13:51:45.809Z,5.80
2019-02-12T13:54:13.617Z,5.70
2019-02-12T13:56:41.467Z,5.70
2019-02-12T13:59:09.263Z,5.80
2019-02-12T14:01:37.067Z,6.00
2019-02-12T14:04:04.971Z,6.30
2019-02-12T14:06:33.009Z,6.50
2019-02-12T14:09:00.943Z,6.60
2019-02-12T14:11:28.741Z,6.70
2019-02-12T14:13:56.673Z,6.80
2019-02-12T14:16:24.502Z,6.90
2019-02-12T14:18:52.310Z,7.00
2019-02-12T14:21:20.139Z,7.10
2019-02-12T14:23:47.995Z,7.10
2019-02-12T14:26:15.831Z,6.90
2019-02-12T14:28:43.648Z,6.80
2019-02-12T14:31:11.443Z,6.70
2019-02-12T14:33:41.564Z,6.70
2019-02-12T14:36:09.749Z,6.60
2019-02-12T14:38:37.591Z,6.60
2019-02-12T14:41:10.170Z,6.40
2019-02-12T14:43:38.024Z,6.30
2019-02-12T14:46:05.802Z,6.20
2019-02-12T14:48:33.672Z,6.20
2019-02-12T14:51:01.456Z,6.10
2019-02-12T14:53:29.706Z,6.00
2019-02-12T14:55:57.494Z,6.00
2019-02-12T14:58:26.509Z,6.00
2019-02-12T15:00:54.320Z,6.00
2019-02-12T15:03:24.328Z,6.00
2019-02-12T15:05:52.134Z,5.90
2019-02-12T15:08:19.963Z,6.00
2019-02-12T15:10:47.783Z,6.00
2019-02-12T15:13:15.698Z,6.10
2019-02-12T15:15:43.501Z,6.00
2019-02-12T15:18:11.281Z,6.10
2019-02-12T15:20:39.056Z,6.00
2019-02-12T15:23:07.066Z,6.00
2019-02-12T15:25:41.767Z,5.90
2019-02-12T15:28:04.585Z,5.80
2019-02-12T15:30:32.489Z,5.70
2019-02-12T15:33:00.273Z,5.60
2019-02-12T15:35:28.005Z,5.60
2019-02-12T15:37:55.847Z,5.50
2019-02-12T15:40:23.701Z,5.50
2019-02-12T15:42:51.503Z,5.50
2019-02-12T15:45:19.428Z,5.50
2019-02-12T15:47:47.234Z,5.40
2019-02-12T15:50:15.019Z,5.40
2019-02-12T15:52:42.828Z,5.40
2019-02-12T15:55:11.424Z,5.40
2019-02-12T15:57:40.513Z,5.50
2019-02-12T16:00:12.649Z,5.50
2019-02-12T16:02:40.459Z,5.50
2019-02-12T16:05:10.401Z,5.50
2019-02-12T16:07:38.675Z,5.50
2019-02-12T16:10:10.329Z,5.50
2019-02-12T16:12:38.119Z,5.50
2019-02-12T16:15:09.578Z,5.50
2019-02-12T16:17:39.313Z,5.50
2019-02-12T16:20:07.326Z,5.40
2019-02-12T16:22:35.217Z,5.50
2019-02-12T16:25:03.396Z,5.50
2019-02-12T16:27:31.239Z,5.50
2019-02-12T16:30:01.045Z,5.40
2019-02-12T16:32:29.092Z,5.30
2019-02-12T16:34:57.306Z,5.10
2019-02-12T16:37:25.090Z,5.00
2019-02-12T16:39:52.970Z,4.80
2019-02-12T16:42:20.852Z,4.70
2019-02-12T16:44:48.891Z,4.60
2019-02-12T16:47:16.738Z,4.50
2019-02-12T16:49:44.572Z,4.60
2019-02-12T16:52:20.462Z,4.50
2019-02-12T16:54:42.181Z,4.50
2019-02-12T16:57:10.038Z,4.40
2019-02-12T16:59:37.872Z,4.40
2019-02-12T17:02:06.522Z,4.40
2019-02-12T17:04:34.494Z,4.30
2019-02-12T17:07:02.541Z,4.30
2019-02-12T17:09:30.527Z,4.30
2019-02-12T17:11:58.543Z,4.30
2019-02-12T17:14:26.650Z,4.40
2019-02-12T17:16:55.007Z,4.40
2019-02-12T17:19:22.940Z,4.50
2019-02-12T17:21:50.922Z,4.50
2019-02-12T17:24:18.903Z,4.50
2019-02-12T17:26:47.466Z,4.60
2019-02-12T17:29:15.351Z,4.60
2019-02-12T17:31:43.419Z,4.60
2019-02-12T17:34:11.478Z,4.60
2019-02-12T17:36:39.337Z,4.60
2019-02-12T17:39:07.125Z,4.60
2019-02-12T17:41:34.989Z,4.60
2019-02-12T17:44:03.070Z,4.60
2019-02-12T17:46:30.975Z,4.60
2019-02-12T17:48:59.044Z,4.50
2019-02-12T17:51:26.913Z,4.50
2019-02-12T17:53:55.764Z,4.50
2019-02-12T17:56:25.160Z,4.40
2019-02-12T17:58:53.075Z,4.30
2019-02-12T18:01:20.870Z,4.20
2019-02-12T18:03:48.883Z,4.10
2019-02-12T18:06:16.769Z,4.00
2019-02-12T18:08:47.770Z,4.00
2019-02-12T18:11:15.606Z,3.90
2019-02-12T18:13:43.410Z,3.80
2019-02-12T18:16:11.191Z,3.80
2019-02-12T18:18:39.006Z,3.80
2019-02-12T18:21:06.956Z,3.90
2019-02-12T18:23:34.730Z,3.90
2019-02-12T18:26:02.914Z,3.80
2019-02-12T18:28:30.817Z,3.70
2019-02-12T18:30:58.686Z,3.70
2019-02-12T18:33:26.471Z,3.70
2019-02-12T18:35:54.282Z,3.70
2019-02-12T18:38:22.074Z,3.60
2019-02-12T18:40:49.935Z,3.60
2019-02-12T18:43:17.738Z,3.60
2019-02-12T18:45:45.620Z,3.60
2019-02-12T18:48:13.409Z,3.60
2019-02-12T18:50:41.266Z,3.60
2019-02-12T18:53:09.344Z,3.50
2019-02-12T18:55:37.738Z,3.50
2019-02-12T18:58:05.598Z,3.50
2019-02-12T19:00:35.892Z,3.40
2019-02-12T19:03:03.672Z,3.40
2019-02-12T19:05:31.474Z,3.30
2019-02-12T19:07:59.325Z,3.30
2019-02-12T19:10:27.142Z,3.30
2019-02-12T19:12:54.953Z,3.30
2019-02-12T19:15:22.784Z,3.30
2019-02-12T19:17:56.185Z,3.20
2019-02-12T19:20:24.041Z,3.20
2019-02-12T19:22:51.902Z,3.20
2019-02-12T19:25:19.904Z,3.10
2019-02-12T19:27:47.683Z,3.10
2019-02-12T19:30:16.268Z,3.10
2019-02-12T19:32:44.209Z,3.10
2019-02-12T19:35:12.006Z,3.10
2019-02-12T19:37:39.871Z,3.10
2019-02-12T19:40:07.970Z,3.10
2019-02-12T19:42:35.843Z,3.10
2019-02-12T19:45:03.963Z,3.10
2019-02-12T19:47:31.872Z,3.20
2019-02-12T19:49:59.746Z,3.30
2019-02-12T19:52:27.543Z,3.40
2019-02-12T19:54:55.351Z,3.50
2019-02-12T19:57:23.198Z,3.60
2019-02-12T19:59:51.023Z,3.60
2019-02-12T20:02:18.899Z,3.70
2019-02-12T20:04:46.892Z,3.80
2019-02-12T20:07:14.867Z,3.90
2019-02-12T20:09:42.709Z,3.90
2019-02-12T20:12:10.643Z,3.90
2019-02-12T20:14:38.509Z,3.90
2019-02-12T20:17:06.371Z,4.00
2019-02-12T20:19:34.173Z,4.00
2019-02-12T20:22:03.388Z,4.00
2019-02-12T20:24:31.230Z,4.00
2019-02-12T20:27:06.349Z,3.90
2019-02-12T20:29:28.838Z,3.90
2019-02-12T20:31:56.721Z,3.90
2019-02-12T20:34:24.613Z,3.90
2019-02-12T20:36:52.417Z,3.90
2019-02-12T20:39:20.253Z,4.00
2019-02-12T20:41:48.163Z,4.00
2019-02-12T20:44:16.895Z,4.10
2019-02-12T20:46:44.734Z,4.10
2019-02-12T20:49:12.558Z,4.20
2019-02-12T20:51:40.390Z,4.20
2019-02-12T20:54:08.227Z,4.20
2019-02-12T20:56:36.050Z,4.20
2019-02-12T20:59:04.226Z,4.20
2019-02-12T21:01:32.076Z,4.20
2019-02-12T21:03:59.858Z,4.30
2019-02-12T21:06:27.670Z,4.20
2019-02-12T21:08:55.489Z,4.30
2019-02-12T21:11:23.318Z,4.20
2019-02-12T21:13:51.139Z,4.30
2019-02-12T21:16:18.953Z,4.30
2019-02-12T21:18:46.836Z,4.20
2019-02-12T21:21:14.702Z,4.20
2019-02-12T21:23:42.503Z,4.20
2019-02-12T21:26:10.335Z,4.20
2019-02-12T21:28:38.157Z,4.20
2019-02-12T21:31:05.961Z,4.20
2019-02-12T21:33:34.148Z,4.20
2019-02-12T21:36:02.083Z,4.20
2019-02-12T21:38:29.987Z,4.30
2019-02-12T21:40:57.808Z,4.30
2019-02-12T21:43:25.646Z,4.30
2019-02-12T21:45:53.595Z,4.40
2019-02-12T21:48:21.365Z,4.40
2019-02-12T21:50:49.117Z,4.40
2019-02-12T21:53:16.909Z,4.40
2019-02-12T21:55:44.687Z,4.40
2019-02-12T21:58:12.493Z,4.50
2019-02-12T22:00:40.237Z,4.50
2019-02-12T22:03:08.063Z,4.50
2019-02-12T22:05:35.821Z,4.50
2019-02-12T22:08:03.592Z,4.50
2019-02-12T22:10:31.411Z,4.50
2019-02-12T22:12:59.177Z,4.50
2019-02-12T22:15:26.971Z,4.50
2019-02-12T22:17:54.807Z,4.50
2019-02-12T22:20:22.781Z,4.50
2019-02-12T22:22:50.633Z,4.50
2019-02-12T22:25:18.380Z,4.50
2019-02-12T22:27:46.527Z,4.50
2019-02-12T22:30:16.805Z,4.50
2019-02-12T22:32:44.595Z,4.50
2019-02-12T22:35:12.468Z,4.40
2019-02-12T22:37:40.321Z,4.40
2019-02-12T22:40:08.649Z,4.40
2019-02-12T22:42:36.452Z,4.40
2019-02-12T22:45:05.914Z,4.40
2019-02-12T22:47:33.782Z,4.40
2019-02-12T22:50:01.613Z,4.40
2019-02-12T22:52:29.413Z,4.40
2019-02-12T22:54:57.183Z,4.50
2019-02-12T22:57:25.002Z,4.40
2019-02-12T22:59:52.766Z,4.40
2019-02-12T23:02:20.600Z,4.40
2019-02-12T23:04:48.316Z,4.30
2019-02-12T23:07:16.123Z,4.40
2019-02-12T23:09:44.080Z,4.30
2019-02-12T23:12:11.956Z,4.30
2019-02-12T23:14:39.859Z,4.40
2019-02-12T23:17:07.652Z,4.40
2019-02-12T23:19:35.560Z,4.40
2019-02-12T23:22:03.390Z,4.40
2019-02-12T23:24:31.169Z,4.30
2019-02-12T23:26:59.029Z,4.40
2019-02-12T23:29:26.814Z,4.30
2019-02-12T23:31:54.625Z,4.40
2019-02-12T23:34:22.384Z,4.40
2019-02-12T23:36:50.181Z,4.30
2019-02-12T23:39:18.134Z,4.40
2019-02-12T23:41:45.972Z,4.30
2019-02-12T23:44:13.955Z,4.40
2019-02-12T23:46:41.850Z,4.40
2019-02-12T23:49:09.819Z,4.40
2019-02-12T23:51:37.833Z,4.40
2019-02-12T23:54:05.698Z,4.40
2019-02-12T23:56:33.485Z,4.40
2019-02-12T23:59:01.331Z,4.50
